createdAt,value
2022-12-12T00:02:20.243Z,62
2022-12-12T00:05:25.504Z,95
2022-12-12T00:08:30.890Z,101
2022-12-12T00:11:36.101Z,107
2022-12-12T00:15:18.475Z,108
2022-12-12T00:18:23.806Z,100
2022-12-12T00:21:29.114Z,126
2022-12-12T00:24:26.232Z,128
2022-12-12T00:27:31.538Z,127
2022-12-12T00:30:36.864Z,128
2022-12-12T00:34:19.237Z,143
2022-12-12T00:37:24.540Z,137
2022-12-12T00:40:29.873Z,133
2022-12-12T00:43:35.162Z,139
2022-12-12T00:47:17.504Z,137
2022-12-12T00:50:22.839Z,142
2022-12-12T00:53:28.113Z,139
2022-12-12T00:56:33.437Z,146
2022-12-12T00:59:38.744Z,129
2022-12-12T01:03:21.180Z,131
2022-12-12T01:06:26.406Z,133
2022-12-12T01:09:31.737Z,126
2022-12-12T01:12:37.108Z,134
2022-12-12T01:16:19.518Z,131
2022-12-12T01:19:24.740Z,130
2022-12-12T01:22:21.840Z,124
2022-12-12T01:25:27.133Z,120
2022-12-12T01:28:32.477Z,131
2022-12-12T01:31:37.817Z,127
2022-12-12T01:35:20.143Z,90
2022-12-12T01:38:25.468Z,46
2022-12-12T01:41:30.761Z,43
2022-12-12T01:44:36.084Z,40
2022-12-12T01:48:18.466Z,49
2022-12-12T01:51:23.765Z,42
2022-12-12T01:54:29.071Z,45
2022-12-12T01:57:34.364Z,49
2022-12-12T02:00:39.730Z,43
2022-12-12T02:04:22.073Z,50
2022-12-12T02:07:27.351Z,51
2022-12-12T02:10:32.657Z,37
2022-12-12T02:13:37.962Z,38
2022-12-12T02:17:20.331Z,44
2022-12-12T02:20:25.652Z,38
2022-12-12T02:23:22.759Z,43
2022-12-12T02:26:28.082Z,37
2022-12-12T02:29:33.388Z,42
2022-12-12T02:32:38.703Z,43
2022-12-12T02:36:21.067Z,77
2022-12-12T02:39:26.386Z,106
2022-12-12T02:42:31.681Z,99
2022-12-12T02:45:36.992Z,112
2022-12-12T02:49:19.340Z,108
2022-12-12T02:52:24.669Z,120
2022-12-12T02:55:33.718Z,127
2022-12-12T02:58:35.301Z,130
2022-12-12T03:02:17.713Z,125
2022-12-12T03:05:22.987Z,133
2022-12-12T03:08:28.335Z,128
2022-12-12T03:11:33.570Z,129
2022-12-12T03:14:38.904Z,139
2022-12-12T03:18:21.281Z,132
2022-12-12T03:21:26.573Z,138
2022-12-12T03:24:23.689Z,129
2022-12-12T03:27:29.000Z,140
2022-12-12T03:30:34.353Z,136
2022-12-12T03:33:39.617Z,137
2022-12-12T03:37:21.992Z,134
2022-12-12T03:40:27.297Z,128
2022-12-12T03:43:32.604Z,119
2022-12-12T03:46:37.956Z,59
2022-12-12T03:50:20.309Z,48
2022-12-12T03:53:25.620Z,44
2022-12-12T03:56:30.889Z,41
2022-12-12T03:59:36.203Z,45
2022-12-12T04:03:18.576Z,38
2022-12-12T04:06:23.915Z,38
2022-12-12T04:09:29.311Z,42
2022-12-12T04:12:34.515Z,44
2022-12-12T04:16:16.938Z,44
2022-12-12T04:19:22.197Z,39
2022-12-12T04:24:18.679Z,43
2022-12-12T04:27:23.989Z,49
2022-12-12T04:30:29.313Z,57
2022-12-12T04:33:34.610Z,49
2022-12-12T04:37:08.801Z,64
2022-12-12T04:39:37.038Z,49
2022-12-12T04:43:19.464Z,46
2022-12-12T04:46:24.831Z,48
2022-12-12T04:49:31.048Z,49
2022-12-12T04:52:35.338Z,51
2022-12-12T04:56:17.814Z,48
2022-12-12T04:59:23.023Z,48
2022-12-12T05:02:28.377Z,59
2022-12-12T05:05:33.621Z,48
2022-12-12T05:08:38.971Z,50
2022-12-12T05:12:21.314Z,48
2022-12-12T05:15:26.629Z,48
2022-12-12T05:18:31.930Z,53
2022-12-12T05:21:37.290Z,57
2022-12-12T05:25:19.616Z,58
2022-12-12T05:28:24.937Z,54
2022-12-12T05:31:30.263Z,53
2022-12-12T05:34:27.343Z,54
2022-12-12T05:37:32.671Z,53
2022-12-12T05:40:38.001Z,51
2022-12-12T05:44:20.343Z,56
2022-12-12T05:47:25.652Z,54
2022-12-12T05:50:30.949Z,56
2022-12-12T05:53:42.452Z,45
2022-12-12T05:57:18.613Z,52
2022-12-12T06:00:23.963Z,45
2022-12-12T06:03:29.275Z,49
2022-12-12T06:06:34.561Z,45
2022-12-12T06:09:39.867Z,52
2022-12-12T06:13:22.235Z,45
2022-12-12T06:16:27.603Z,47
2022-12-12T06:19:32.944Z,50
2022-12-12T06:22:38.181Z,49
2022-12-12T06:26:20.537Z,48
2022-12-12T06:29:25.988Z,48
2022-12-12T06:32:31.174Z,46
2022-12-12T06:35:28.292Z,46
2022-12-12T06:38:33.603Z,43
2022-12-12T06:41:38.929Z,50
2022-12-12T06:45:21.254Z,47
2022-12-12T06:48:26.590Z,46
2022-12-12T06:51:31.880Z,51
2022-12-12T06:54:37.267Z,49
2022-12-12T06:58:19.520Z,48
2022-12-12T07:01:24.914Z,46
2022-12-12T07:04:30.168Z,57
2022-12-12T07:07:35.520Z,48
2022-12-12T07:11:17.839Z,70
2022-12-12T07:14:23.191Z,61
2022-12-12T07:17:28.474Z,48
2022-12-12T07:20:33.766Z,45
2022-12-12T07:24:16.229Z,45
2022-12-12T07:27:21.869Z,48
2022-12-12T07:30:26.784Z,48
2022-12-12T07:33:41.256Z,51
2022-12-12T07:36:29.299Z,48
2022-12-12T07:39:34.525Z,54
2022-12-12T07:42:39.807Z,52
2022-12-12T07:46:22.236Z,60
2022-12-12T07:49:27.515Z,55
2022-12-12T07:52:32.887Z,57
2022-12-12T07:55:38.203Z,51
2022-12-12T07:59:20.509Z,58
2022-12-12T08:02:25.763Z,58
2022-12-12T08:05:31.082Z,49
2022-12-12T08:08:36.426Z,53
2022-12-12T08:12:18.795Z,59
2022-12-12T08:15:24.083Z,44
2022-12-12T08:18:29.720Z,52
2022-12-12T08:21:34.704Z,55
2022-12-12T08:25:17.109Z,54
2022-12-12T08:28:23.091Z,56
2022-12-12T08:31:27.789Z,54
2022-12-12T08:34:32.987Z,67
2022-12-12T08:37:30.186Z,56
2022-12-12T08:40:35.531Z,56
2022-12-12T08:44:17.768Z,59
2022-12-12T08:47:23.476Z,60
2022-12-12T08:50:28.420Z,84
2022-12-12T08:53:33.736Z,97
2022-12-12T08:56:39.021Z,88
2022-12-12T09:00:21.454Z,91
2022-12-12T09:03:29.350Z,103
2022-12-12T09:06:32.000Z,117
2022-12-12T09:09:37.315Z,90
2022-12-12T09:13:19.718Z,79
2022-12-12T09:16:25.704Z,104
2022-12-12T09:19:30.295Z,87
2022-12-12T09:22:35.716Z,88
2022-12-12T09:26:18.199Z,89
2022-12-12T09:29:23.599Z,86
2022-12-12T09:32:28.626Z,90
2022-12-12T09:37:17.037Z,96
2022-12-12T09:40:22.209Z,96
2022-12-12T09:43:29.573Z,96
2022-12-12T09:46:32.914Z,92
2022-12-12T09:49:43.176Z,94
2022-12-12T09:53:20.505Z,87
2022-12-12T09:56:25.828Z,89
2022-12-12T09:59:31.263Z,112
2022-12-12T10:02:36.495Z,107
2022-12-12T10:06:37.376Z,100
2022-12-12T10:09:24.464Z,126
2022-12-12T10:12:29.470Z,94
2022-12-12T10:15:34.869Z,87
2022-12-12T10:19:17.132Z,103
2022-12-12T10:22:24.399Z,130
2022-12-12T10:25:27.885Z,86
2022-12-12T10:28:33.687Z,85
2022-12-12T10:31:38.498Z,89
2022-12-12T10:35:36.601Z,84
2022-12-12T10:38:18.403Z,89
2022-12-12T10:41:23.164Z,92
2022-12-12T10:44:28.465Z,86
2022-12-12T10:47:33.771Z,83
2022-12-12T10:50:39.189Z,85
2022-12-12T10:54:21.476Z,72
2022-12-12T10:57:26.777Z,92
2022-12-12T11:00:32.065Z,82
2022-12-12T11:03:37.415Z,82
2022-12-12T11:07:19.757Z,80
2022-12-12T11:10:27.920Z,78
2022-12-12T11:13:30.357Z,78
2022-12-12T11:16:35.728Z,82
2022-12-12T11:20:18.164Z,80
2022-12-12T11:23:23.477Z,80
2022-12-12T11:26:28.681Z,71
2022-12-12T11:29:34.093Z,77
2022-12-12T11:34:30.491Z,71
2022-12-12T11:37:27.621Z,77
2022-12-12T11:40:32.902Z,71
2022-12-12T11:43:38.249Z,72
2022-12-12T11:47:20.545Z,65
2022-12-12T11:50:25.852Z,63
2022-12-12T11:53:31.276Z,64
2022-12-12T11:56:36.503Z,64
2022-12-12T12:00:18.871Z,70
2022-12-12T12:03:24.320Z,60
2022-12-12T12:06:29.465Z,67
2022-12-12T12:09:35.050Z,64
2022-12-12T12:13:17.169Z,82
2022-12-12T12:16:22.482Z,78
2022-12-12T12:19:27.779Z,86
2022-12-12T12:22:33.096Z,92
2022-12-12T12:25:38.453Z,84
2022-12-12T12:29:20.778Z,93
2022-12-12T12:32:26.157Z,96
2022-12-12T12:35:31.390Z,99
2022-12-12T12:38:28.672Z,99
2022-12-12T12:41:33.822Z,97
2022-12-12T12:44:39.320Z,107
2022-12-12T12:48:21.479Z,99
2022-12-12T12:51:26.801Z,102
2022-12-12T12:54:32.142Z,105
2022-12-12T12:59:28.612Z,105
2022-12-12T13:02:34.012Z,100
2022-12-12T13:06:16.278Z,100
2022-12-12T13:09:21.602Z,97
2022-12-12T13:12:26.888Z,91
2022-12-12T13:15:32.240Z,102
2022-12-12T13:18:44.798Z,97
2022-12-12T13:22:19.913Z,96
2022-12-12T13:25:25.258Z,97
2022-12-12T13:28:30.507Z,98
2022-12-12T13:31:36.038Z,108
2022-12-12T13:35:18.227Z,97
2022-12-12T13:38:23.525Z,93
2022-12-12T13:41:28.892Z,84
2022-12-12T13:44:34.169Z,75
2022-12-12T13:48:08.388Z,81
2022-12-12T13:50:36.519Z,88
2022-12-12T13:54:18.958Z,83
2022-12-12T13:57:24.321Z,67
2022-12-12T14:00:29.543Z,61
2022-12-12T14:03:34.969Z,71
2022-12-12T14:07:17.422Z,83
2022-12-12T14:10:22.534Z,92
2022-12-12T14:13:27.840Z,100
2022-12-12T14:16:33.119Z,100
2022-12-12T14:19:38.491Z,98
2022-12-12T14:23:20.836Z,97
2022-12-12T14:26:26.122Z,93
2022-12-12T14:29:32.673Z,93
2022-12-12T14:32:36.755Z,102
2022-12-12T14:36:19.133Z,91
2022-12-12T14:39:24.619Z,84
2022-12-12T14:43:15.135Z,97
2022-12-12T14:45:35.233Z,91
2022-12-12T14:49:09.231Z,105
2022-12-12T14:51:37.470Z,109
2022-12-12T14:55:19.853Z,104
2022-12-12T14:58:25.224Z,104
2022-12-12T15:01:30.538Z,114
2022-12-12T15:04:35.758Z,110
2022-12-12T15:08:18.344Z,112
2022-12-12T15:11:23.587Z,112
2022-12-12T15:14:28.774Z,105
2022-12-12T15:17:34.252Z,111
2022-12-12T15:21:16.534Z,111
2022-12-12T15:24:21.776Z,111
2022-12-12T15:27:27.376Z,117
2022-12-12T15:30:32.418Z,117
2022-12-12T15:33:37.684Z,105
2022-12-12T15:37:20.055Z,108
2022-12-12T15:40:25.369Z,110
2022-12-12T15:43:30.740Z,114
2022-12-12T15:46:36.015Z,106
2022-12-12T15:50:10.231Z,121
2022-12-12T15:52:38.464Z,122
2022-12-12T15:56:20.786Z,121
2022-12-12T15:59:26.096Z,127
2022-12-12T16:02:31.485Z,128
2022-12-12T16:05:37.218Z,123
2022-12-12T16:09:19.086Z,132
2022-12-12T16:12:24.370Z,126
2022-12-12T16:15:29.745Z,126
2022-12-12T16:18:34.975Z,124
2022-12-12T16:22:17.753Z,121
2022-12-12T16:25:22.671Z,115
2022-12-12T16:28:28.336Z,119
2022-12-12T16:31:33.367Z,132
2022-12-12T16:34:38.816Z,117
2022-12-12T16:38:20.977Z,126
2022-12-12T16:41:26.261Z,120
2022-12-12T16:44:31.599Z,125
2022-12-12T16:47:36.984Z,122
2022-12-12T16:51:11.044Z,122
2022-12-12T16:54:16.398Z,131
2022-12-12T16:57:21.695Z,132
2022-12-12T17:00:26.986Z,149
2022-12-12T17:03:32.347Z,140
2022-12-12T17:06:37.808Z,143
2022-12-12T17:10:20.018Z,144
2022-12-12T17:13:25.337Z,140
2022-12-12T17:16:30.683Z,132
2022-12-12T17:19:35.918Z,142
2022-12-12T17:23:34.013Z,128
2022-12-12T17:26:23.605Z,127
2022-12-12T17:29:28.923Z,122
2022-12-12T17:32:34.222Z,121
2022-12-12T17:36:16.619Z,132
2022-12-12T17:39:21.909Z,118
2022-12-12T17:42:27.202Z,113
2022-12-12T17:45:32.561Z,121
2022-12-12T17:48:38.251Z,117
2022-12-12T17:52:21.237Z,130
2022-12-12T17:55:52.740Z,137
2022-12-12T17:58:30.834Z,129
2022-12-12T18:01:36.773Z,135
2022-12-12T18:05:18.517Z,132
2022-12-12T18:08:23.840Z,130
2022-12-12T18:11:29.154Z,117
2022-12-12T18:14:34.419Z,120
2022-12-12T18:17:39.751Z,117
2022-12-12T18:21:51.544Z,124
2022-12-12T18:24:27.772Z,124
2022-12-12T18:27:32.732Z,123
2022-12-12T18:30:38.150Z,125
2022-12-12T18:34:20.412Z,131
2022-12-12T18:37:26.174Z,131
2022-12-12T18:40:31.046Z,122
2022-12-12T18:43:36.330Z,118
2022-12-12T18:47:18.732Z,124
2022-12-12T18:50:16.057Z,123
2022-12-12T18:53:21.115Z,127
2022-12-12T18:56:26.454Z,115
2022-12-12T18:59:31.769Z,123
2022-12-12T19:02:37.508Z,125
2022-12-12T19:06:19.437Z,122
2022-12-12T19:09:24.730Z,122
2022-12-12T19:12:30.062Z,127
2022-12-12T19:15:35.356Z,130
2022-12-12T19:19:18.135Z,131
2022-12-12T19:22:44.176Z,123
2022-12-12T19:25:28.508Z,123
2022-12-12T19:28:33.670Z,127
2022-12-12T19:31:40.737Z,134
2022-12-12T19:35:21.318Z,141
2022-12-12T19:38:26.654Z,145
2022-12-12T19:41:31.934Z,143
2022-12-12T19:44:43.128Z,156
2022-12-12T19:48:19.638Z,147
2022-12-12T19:52:30.870Z,142
2022-12-12T19:55:36.366Z,131
2022-12-12T19:59:18.559Z,136
2022-12-12T20:02:23.879Z,129
2022-12-12T20:05:29.181Z,137
2022-12-12T20:08:34.531Z,135
2022-12-12T20:12:16.834Z,135
2022-12-12T20:15:22.148Z,131
2022-12-12T20:18:27.481Z,142
2022-12-12T20:21:59.573Z,135
2022-12-12T20:24:38.240Z,139
2022-12-12T20:28:20.735Z,136
2022-12-12T20:31:26.045Z,141
2022-12-12T20:34:31.067Z,144
2022-12-12T20:37:36.361Z,136
2022-12-12T20:41:19.045Z,150
2022-12-12T20:44:24.157Z,141
2022-12-12T20:47:29.393Z,142
2022-12-12T20:50:34.701Z,140
2022-12-12T20:54:08.877Z,147
2022-12-12T20:56:40.266Z,148
2022-12-12T21:00:19.564Z,142
2022-12-12T21:03:24.769Z,150
2022-12-12T21:06:30.073Z,148
2022-12-12T21:09:35.868Z,142
2022-12-12T21:13:17.860Z,145
2022-12-12T21:16:23.111Z,146
2022-12-12T21:19:28.467Z,147
2022-12-12T21:22:33.683Z,153
2022-12-12T21:25:39.340Z,157
2022-12-12T21:29:21.422Z,149
2022-12-12T21:32:26.688Z,150
2022-12-12T21:35:32.035Z,153
2022-12-12T21:38:37.663Z,162
2022-12-12T21:42:19.717Z,164
2022-12-12T21:45:25.105Z,160
2022-12-12T21:48:30.295Z,155
2022-12-12T21:53:18.595Z,146
2022-12-12T21:56:23.987Z,148
2022-12-12T21:59:29.264Z,151
2022-12-12T22:02:34.627Z,156
2022-12-12T22:06:17.265Z,149
2022-12-12T22:09:22.203Z,155
2022-12-12T22:12:28.282Z,153
2022-12-12T22:15:32.838Z,166
2022-12-12T22:18:38.264Z,155
2022-12-12T22:22:20.516Z,159
2022-12-12T22:25:25.851Z,156
2022-12-12T22:28:31.167Z,161
2022-12-12T22:33:27.839Z,159
2022-12-12T22:36:33.024Z,160
2022-12-12T22:39:38.358Z,152
2022-12-12T22:43:20.603Z,152
2022-12-12T22:46:25.964Z,154
2022-12-12T22:49:31.535Z,161
2022-12-12T22:51:59.490Z,157
2022-12-12T22:54:19.533Z,156
2022-12-12T22:57:24.813Z,161
2022-12-12T23:00:30.227Z,159
2022-12-12T23:03:35.565Z,160
2022-12-12T23:07:17.818Z,159
2022-12-12T23:10:23.140Z,158
2022-12-12T23:13:28.433Z,166
2022-12-12T23:16:34.872Z,157
2022-12-12T23:19:39.054Z,153
2022-12-12T23:23:22.792Z,162
2022-12-12T23:26:26.771Z,155
2022-12-12T23:29:32.043Z,153
2022-12-12T23:32:42.254Z,144
2022-12-12T23:36:19.738Z,150
2022-12-12T23:40:39.186Z,160
2022-12-12T23:44:21.523Z,159
2022-12-12T23:47:26.836Z,142
2022-12-12T23:50:32.176Z,149
2022-12-12T23:53:29.290Z,154
2022-12-12T23:56:34.555Z,135
